^^
Station Historical Data
 
Daily Summary for May 22, 2018 Units:  Both    English   Metric
« Previous Day
Next Day »
Daily Weekly Monthly Yearly Custom
  Current: High: Low: Average:
Temperature: 72.9 °F /  22.7 °C TemperatureF °F /  -17.8 °C 42.1 °F /  5.6 °C 50.1 °F /  10.1 °C
Dew Point: 39.6 °F /  4.2 °C DewpointF °F /  -17.8 °C 28.8 °F /  -1.8 °C 34.5 °F /  1.4 °C
Humidity: 30% Humidity% 30% 56%
Wind Speed: 8.1mph /  13km/h WindSpeedMPHmph /  0km/h - 1mph /  1.6km/h
Wind Gust: 8.1mph /  13km/h WindSpeedGustMPHmph /  0km/h - -
WindNE - - East
Pressure: 30.12 in /  1019.9 hPa PressureIn in /  0 hPa 30.07 in /  1018.2 hPa -
Precipitation: 0.00 in /  0 mm      
Historical Graphs
 
 
Tabular Data for May 22, 2018
Time Temperature Dew Point Pressure Wind Wind Speed Wind Gust Humidity Rainfall Rate (Hourly) solar Conditions
TemperatureF °F /  -17.8 °C DewpointF °F /  -17.8 °C PressureInin /  0hPa Calm     Humidity% HourlyPrecipInin /  0mm SolarRadiationWatts/m^2 W/m2 Conditions
00:04 48.6 °F /  9.2 °C 30.2 °F /  -1 °C 30.09in /  1018.8hPa East 2.0mph /  3.2km/h 2.0mph /  3.2km/h 49% 0.00in /  0mm 0.0 W/m2
00:09 48.4 °F /  9.1 °C 30.0 °F /  -1.1 °C 30.09in /  1018.8hPa Calm   2.0mph /  3.2km/h 49% 0.00in /  0mm 0.0 W/m2
00:14 48.4 °F /  9.1 °C 30.0 °F /  -1.1 °C 30.09in /  1018.8hPa Calm   2.0mph /  3.2km/h 49% 0.00in /  0mm 0.0 W/m2
00:19 48.4 °F /  9.1 °C 31.1 °F /  -0.5 °C 30.09in /  1018.8hPa Calm   1.0mph /  1.6km/h 51% 0.00in /  0mm 0.0 W/m2
00:24 48.2 °F /  9 °C 30.0 °F /  -1.1 °C 30.09in /  1018.8hPa Calm   2.0mph /  3.2km/h 49% 0.00in /  0mm 0.0 W/m2
00:29 48.0 °F /  8.9 °C 30.2 °F /  -1 °C 30.09in /  1018.8hPa Calm   2.0mph /  3.2km/h 50% 0.00in /  0mm 0.0 W/m2
00:34 48.0 °F /  8.9 °C 29.8 °F /  -1.2 °C 30.09in /  1018.8hPa Calm   2.0mph /  3.2km/h 49% 0.00in /  0mm 0.0 W/m2
00:40 47.8 °F /  8.8 °C 30.6 °F /  -0.8 °C 30.09in /  1018.8hPa Calm     51% 0.00in /  0mm 0.0 W/m2
00:45 47.7 °F /  8.7 °C 30.4 °F /  -0.9 °C 30.09in /  1018.8hPa Calm   3.0mph /  4.8km/h 51% 0.00in /  0mm 0.0 W/m2
00:50 47.5 °F /  8.6 °C 30.2 °F /  -1 °C 30.09in /  1018.8hPa Calm   3.0mph /  4.8km/h 51% 0.00in /  0mm 0.0 W/m2
00:56 47.3 °F /  8.5 °C 30.0 °F /  -1.1 °C 30.09in /  1018.8hPa Calm   3.0mph /  4.8km/h 51% 0.00in /  0mm 0.0 W/m2
01:01 47.1 °F /  8.4 °C 30.4 °F /  -0.9 °C 30.09in /  1018.8hPa East 0.9mph /  1.4km/h 3.0mph /  4.8km/h 52% 0.00in /  0mm 0.0 W/m2
01:06 46.9 °F /  8.3 °C 29.8 °F /  -1.2 °C 30.09in /  1018.8hPa East 0.9mph /  1.4km/h 4.0mph /  6.4km/h 51% 0.00in /  0mm 0.0 W/m2
01:11 46.8 °F /  8.2 °C 29.7 °F /  -1.3 °C 30.09in /  1018.8hPa Calm   3.0mph /  4.8km/h 51% 0.00in /  0mm 0.0 W/m2
01:16 46.8 °F /  8.2 °C 29.1 °F /  -1.6 °C 30.09in /  1018.8hPa Calm   2.0mph /  3.2km/h 50% 0.00in /  0mm 0.0 W/m2
01:21 46.8 °F /  8.2 °C 29.1 °F /  -1.6 °C 30.09in /  1018.8hPa East 2.0mph /  3.2km/h 3.0mph /  4.8km/h 50% 0.00in /  0mm 0.0 W/m2
01:26 46.9 °F /  8.3 °C 28.8 °F /  -1.8 °C 30.10in /  1019.2hPa East 0.9mph /  1.4km/h 4.0mph /  6.4km/h 49% 0.00in /  0mm 0.0 W/m2
01:31 47.1 °F /  8.4 °C 28.9 °F /  -1.7 °C 30.09in /  1018.8hPa Calm   2.0mph /  3.2km/h 49% 0.00in /  0mm 0.0 W/m2
01:37 47.5 °F /  8.6 °C 29.3 °F /  -1.5 °C 30.09in /  1018.8hPa Calm   1.0mph /  1.6km/h 49% 0.00in /  0mm 0.0 W/m2
01:42 47.5 °F /  8.6 °C 29.8 °F /  -1.2 °C 30.09in /  1018.8hPa Calm   2.0mph /  3.2km/h 50% 0.00in /  0mm 0.0 W/m2
01:47 47.3 °F /  8.5 °C 30.6 °F /  -0.8 °C 30.09in /  1018.8hPa Calm   1.0mph /  1.6km/h 52% 0.00in /  0mm 0.0 W/m2
01:52 47.1 °F /  8.4 °C 31.8 °F /  -0.1 °C 30.09in /  1018.8hPa Calm     55% 0.00in /  0mm 0.0 W/m2
01:57 46.8 °F /  8.2 °C 31.8 °F /  -0.1 °C 30.09in /  1018.8hPa Calm     56% 0.00in /  0mm 0.0 W/m2
02:02 46.6 °F /  8.1 °C 32.5 °F /  0.3 °C 30.09in /  1018.8hPa Calm     58% 0.00in /  0mm 0.0 W/m2
02:07 46.2 °F /  7.9 °C 31.5 °F /  -0.3 °C 30.09in /  1018.8hPa Calm   2.0mph /  3.2km/h 56% 0.00in /  0mm 0.0 W/m2
02:12 45.9 °F /  7.7 °C 32.0 °F /  0 °C 30.09in /  1018.8hPa Calm     58% 0.00in /  0mm 0.0 W/m2
02:18 45.7 °F /  7.6 °C 32.2 °F /  0.1 °C 30.09in /  1018.8hPa Calm   1.0mph /  1.6km/h 59% 0.00in /  0mm 0.0 W/m2
02:23 45.1 °F /  7.3 °C 31.6 °F /  -0.2 °C 30.09in /  1018.8hPa Calm     59% 0.00in /  0mm 0.0 W/m2
02:28 45.0 °F /  7.2 °C 31.5 °F /  -0.3 °C 30.09in /  1018.8hPa Calm   1.0mph /  1.6km/h 59% 0.00in /  0mm 0.0 W/m2
02:34 45.0 °F /  7.2 °C 31.5 °F /  -0.3 °C 30.09in /  1018.8hPa Calm   2.0mph /  3.2km/h 59% 0.00in /  0mm 0.0 W/m2
02:39 45.0 °F /  7.2 °C 29.8 °F /  -1.2 °C 30.09in /  1018.8hPa ESE 2.0mph /  3.2km/h 3.0mph /  4.8km/h 55% 0.00in /  0mm 0.0 W/m2
02:44 45.5 °F /  7.5 °C 29.8 °F /  -1.2 °C 30.09in /  1018.8hPa SE 2.0mph /  3.2km/h 3.0mph /  4.8km/h 54% 0.00in /  0mm 0.0 W/m2
02:49 45.9 °F /  7.7 °C 30.2 °F /  -1 °C 30.09in /  1018.8hPa Calm   1.0mph /  1.6km/h 54% 0.00in /  0mm 0.0 W/m2
02:54 46.0 °F /  7.8 °C 30.4 °F /  -0.9 °C 30.09in /  1018.8hPa ESE 2.0mph /  3.2km/h 3.0mph /  4.8km/h 54% 0.00in /  0mm 0.0 W/m2
03:00 46.2 °F /  7.9 °C 30.6 °F /  -0.8 °C 30.08in /  1018.5hPa Calm   2.0mph /  3.2km/h 54% 0.00in /  0mm 0.0 W/m2
03:05 46.2 °F /  7.9 °C 30.9 °F /  -0.6 °C 30.08in /  1018.5hPa Calm   3.0mph /  4.8km/h 55% 0.00in /  0mm 0.0 W/m2
03:14 46.6 °F /  8.1 °C 31.3 °F /  -0.4 °C 30.08in /  1018.5hPa Calm   3.0mph /  4.8km/h 55% 0.00in /  0mm 0.0 W/m2
03:19 46.9 °F /  8.3 °C 31.1 °F /  -0.5 °C 30.08in /  1018.5hPa SE 2.9mph /  4.7km/h 6.0mph /  9.7km/h 54% 0.00in /  0mm 0.0 W/m2
03:24 47.1 °F /  8.4 °C 30.9 °F /  -0.6 °C 30.08in /  1018.5hPa SE 0.9mph /  1.4km/h 3.0mph /  4.8km/h 53% 0.00in /  0mm 0.0 W/m2
03:29 47.1 °F /  8.4 °C 31.3 °F /  -0.4 °C 30.08in /  1018.5hPa Calm   1.0mph /  1.6km/h 54% 0.00in /  0mm 0.0 W/m2
03:34 46.9 °F /  8.3 °C 32.5 °F /  0.3 °C 30.08in /  1018.5hPa Calm   1.0mph /  1.6km/h 57% 0.00in /  0mm 0.0 W/m2
03:40 46.6 °F /  8.1 °C 31.6 °F /  -0.2 °C 30.08in /  1018.5hPa Calm   3.0mph /  4.8km/h 56% 0.00in /  0mm 0.0 W/m2
03:45 46.2 °F /  7.9 °C 31.5 °F /  -0.3 °C 30.08in /  1018.5hPa Calm   3.0mph /  4.8km/h 56% 0.00in /  0mm 0.0 W/m2
03:50 46.2 °F /  7.9 °C 31.8 °F /  -0.1 °C 30.08in /  1018.5hPa Calm   1.0mph /  1.6km/h 57% 0.00in /  0mm 0.0 W/m2
03:56 46.0 °F /  7.8 °C 32.5 °F /  0.3 °C 30.07in /  1018.2hPa Calm   1.0mph /  1.6km/h 59% 0.00in /  0mm 0.0 W/m2
04:01 46.0 °F /  7.8 °C 32.5 °F /  0.3 °C 30.07in /  1018.2hPa Calm   2.0mph /  3.2km/h 59% 0.00in /  0mm 0.0 W/m2
04:06 46.0 °F /  7.8 °C 32.9 °F /  0.5 °C 30.07in /  1018.2hPa Calm   1.0mph /  1.6km/h 60% 0.00in /  0mm 0.0 W/m2
04:11 45.9 °F /  7.7 °C 32.7 °F /  0.4 °C 30.07in /  1018.2hPa SE 0.9mph /  1.4km/h 3.0mph /  4.8km/h 60% 0.00in /  0mm 0.0 W/m2
04:16 45.9 °F /  7.7 °C 33.3 °F /  0.7 °C 30.07in /  1018.2hPa SE 0.9mph /  1.4km/h 4.0mph /  6.4km/h 61% 0.00in /  0mm 0.0 W/m2
04:21 45.9 °F /  7.7 °C 33.3 °F /  0.7 °C 30.07in /  1018.2hPa SE 0.9mph /  1.4km/h 2.0mph /  3.2km/h 61% 0.00in /  0mm 0.0 W/m2
04:26 45.9 °F /  7.7 °C 33.6 °F /  0.9 °C 30.07in /  1018.2hPa Calm     62% 0.00in /  0mm 0.0 W/m2
04:31 45.7 °F /  7.6 °C 33.4 °F /  0.8 °C 30.07in /  1018.2hPa Calm   1.0mph /  1.6km/h 62% 0.00in /  0mm 0.0 W/m2
04:37 45.3 °F /  7.4 °C 33.4 °F /  0.8 °C 30.07in /  1018.2hPa Calm     63% 0.00in /  0mm 0.0 W/m2
04:42 45.0 °F /  7.2 °C 33.4 °F /  0.8 °C 30.08in /  1018.5hPa SE 2.0mph /  3.2km/h 2.0mph /  3.2km/h 64% 0.00in /  0mm 0.0 W/m2
04:47 44.4 °F /  6.9 °C 33.4 °F /  0.8 °C 30.07in /  1018.2hPa Calm   1.0mph /  1.6km/h 65% 0.00in /  0mm 0.0 W/m2
04:52 44.1 °F /  6.7 °C 33.8 °F /  1 °C 30.07in /  1018.2hPa Calm   1.0mph /  1.6km/h 67% 0.00in /  0mm 0.0 W/m2
04:57 43.5 °F /  6.4 °C 33.3 °F /  0.7 °C 30.07in /  1018.2hPa Calm   1.0mph /  1.6km/h 67% 0.00in /  0mm 0.0 W/m2
05:02 43.3 °F /  6.3 °C 33.4 °F /  0.8 °C 30.07in /  1018.2hPa Calm   2.0mph /  3.2km/h 68% 0.00in /  0mm 0.0 W/m2
05:07 43.3 °F /  6.3 °C 33.8 °F /  1 °C 30.07in /  1018.2hPa Calm     69% 0.00in /  0mm 0.0 W/m2
05:12 43.3 °F /  6.3 °C 33.8 °F /  1 °C 30.08in /  1018.5hPa Calm   1.0mph /  1.6km/h 69% 0.00in /  0mm 0.0 W/m2
05:17 43.2 °F /  6.2 °C 33.6 °F /  0.9 °C 30.08in /  1018.5hPa SE 0.9mph /  1.4km/h 2.0mph /  3.2km/h 69% 0.00in /  0mm 0.0 W/m2
05:22 43.2 °F /  6.2 °C 33.6 °F /  0.9 °C 30.08in /  1018.5hPa Calm   1.0mph /  1.6km/h 69% 0.00in /  0mm 0.0 W/m2
05:27 43.3 °F /  6.3 °C 33.8 °F /  1 °C 30.08in /  1018.5hPa Calm   1.0mph /  1.6km/h 69% 0.00in /  0mm 0.0 W/m2
05:33 43.3 °F /  6.3 °C 33.8 °F /  1 °C 30.08in /  1018.5hPa SE 0.9mph /  1.4km/h 2.0mph /  3.2km/h 69% 0.00in /  0mm 0.0 W/m2
05:38 43.5 °F /  6.4 °C 34.0 °F /  1.1 °C 30.08in /  1018.5hPa Calm   1.0mph /  1.6km/h 69% 0.00in /  0mm 0.0 W/m2
05:43 43.3 °F /  6.3 °C 33.1 °F /  0.6 °C 30.08in /  1018.5hPa SE 0.9mph /  1.4km/h 2.0mph /  3.2km/h 67% 0.00in /  0mm 0.0 W/m2
05:48 43.5 °F /  6.4 °C 33.6 °F /  0.9 °C 30.08in /  1018.5hPa SE 2.0mph /  3.2km/h 2.0mph /  3.2km/h 68% 0.00in /  0mm 0.0 W/m2
05:53 43.3 °F /  6.3 °C 33.4 °F /  0.8 °C 30.08in /  1018.5hPa Calm   1.0mph /  1.6km/h 68% 0.00in /  0mm 0.0 W/m2
05:58 43.3 °F /  6.3 °C 33.8 °F /  1 °C 30.09in /  1018.8hPa SE 2.0mph /  3.2km/h 2.0mph /  3.2km/h 69% 0.00in /  0mm 0.0 W/m2
06:03 43.2 °F /  6.2 °C 33.6 °F /  0.9 °C 30.09in /  1018.8hPa Calm     69% 0.00in /  0mm 0.0 W/m2
06:08 43.0 °F /  6.1 °C 33.4 °F /  0.8 °C 30.09in /  1018.8hPa Calm     69% 0.00in /  0mm 0.0 W/m2
06:13 42.6 °F /  5.9 °C 33.4 °F /  0.8 °C 30.09in /  1018.8hPa Calm     70% 0.00in /  0mm 0.0 W/m2
06:18 42.4 °F /  5.8 °C 33.6 °F /  0.9 °C 30.09in /  1018.8hPa Calm   1.0mph /  1.6km/h 71% 0.00in /  0mm 0.0 W/m2
06:23 42.3 °F /  5.7 °C 33.6 °F /  0.9 °C 30.09in /  1018.8hPa Calm     71% 0.00in /  0mm 0.0 W/m2
06:29 42.1 °F /  5.6 °C 33.8 °F /  1 °C 30.09in /  1018.8hPa Calm   2.0mph /  3.2km/h 72% 0.00in /  0mm 0.0 W/m2
06:35 42.1 °F /  5.6 °C 33.4 °F /  0.8 °C 30.09in /  1018.8hPa Calm     71% 0.00in /  0mm 0.0 W/m2
06:40 42.1 °F /  5.6 °C 33.4 °F /  0.8 °C 30.09in /  1018.8hPa SE 0.9mph /  1.4km/h 1.0mph /  1.6km/h 71% 0.00in /  0mm 0.0 W/m2
06:45 42.1 °F /  5.6 °C 33.1 °F /  0.6 °C 30.09in /  1018.8hPa SE 0.9mph /  1.4km/h 1.0mph /  1.6km/h 70% 0.00in /  0mm 0.0 W/m2
06:50 42.1 °F /  5.6 °C 33.4 °F /  0.8 °C 30.10in /  1019.2hPa Calm     71% 0.00in /  0mm 0.0 W/m2
06:55 42.4 °F /  5.8 °C 33.4 °F /  0.8 °C 30.10in /  1019.2hPa Calm   1.0mph /  1.6km/h 70% 0.00in /  0mm 0.0 W/m2
07:00 42.6 °F /  5.9 °C 33.4 °F /  0.8 °C 30.10in /  1019.2hPa Calm     70% 0.00in /  0mm 0.0 W/m2
07:05 42.8 °F /  6 °C 33.3 °F /  0.7 °C 30.10in /  1019.2hPa Calm   1.0mph /  1.6km/h 69% 0.00in /  0mm 0.0 W/m2
07:10 43.0 °F /  6.1 °C 33.8 °F /  1 °C 30.11in /  1019.5hPa Calm   3.0mph /  4.8km/h 70% 0.00in /  0mm 0.0 W/m2
07:15 43.2 °F /  6.2 °C 33.6 °F /  0.9 °C 30.11in /  1019.5hPa Calm   1.0mph /  1.6km/h 69% 0.00in /  0mm 0.0 W/m2
07:21 43.3 °F /  6.3 °C 33.4 °F /  0.8 °C 30.11in /  1019.5hPa Calm     68% 0.00in /  0mm 0.0 W/m2
07:26 43.3 °F /  6.3 °C 33.4 °F /  0.8 °C 30.11in /  1019.5hPa Calm   3.0mph /  4.8km/h 68% 0.00in /  0mm 5.0 W/m2
07:31 43.2 °F /  6.2 °C 33.6 °F /  0.9 °C 30.12in /  1019.9hPa Calm   1.0mph /  1.6km/h 69% 0.00in /  0mm 7.0 W/m2
07:36 43.2 °F /  6.2 °C 34.0 °F /  1.1 °C 30.12in /  1019.9hPa Calm   2.0mph /  3.2km/h 70% 0.00in /  0mm 9.0 W/m2
07:41 43.0 °F /  6.1 °C 33.8 °F /  1 °C 30.12in /  1019.9hPa Calm   1.0mph /  1.6km/h 70% 0.00in /  0mm 11.0 W/m2
07:46 43.0 °F /  6.1 °C 33.8 °F /  1 °C 30.12in /  1019.9hPa SE 0.9mph /  1.4km/h 4.0mph /  6.4km/h 70% 0.00in /  0mm 12.0 W/m2
07:51 43.2 °F /  6.2 °C 34.0 °F /  1.1 °C 30.13in /  1020.2hPa Calm   3.0mph /  4.8km/h 70% 0.00in /  0mm 12.0 W/m2
07:56 43.2 °F /  6.2 °C 34.3 °F /  1.3 °C 30.13in /  1020.2hPa Calm     71% 0.00in /  0mm 14.0 W/m2
08:01 43.0 °F /  6.1 °C 34.5 °F /  1.4 °C 30.13in /  1020.2hPa Calm   1.0mph /  1.6km/h 72% 0.00in /  0mm 14.0 W/m2
08:07 43.0 °F /  6.1 °C 34.9 °F /  1.6 °C 30.14in /  1020.5hPa Calm     73% 0.00in /  0mm 16.0 W/m2
08:12 43.0 °F /  6.1 °C 34.9 °F /  1.6 °C 30.14in /  1020.5hPa Calm   1.0mph /  1.6km/h 73% 0.00in /  0mm 18.0 W/m2
08:17 43.2 °F /  6.2 °C 35.4 °F /  1.9 °C 30.14in /  1020.5hPa Calm     74% 0.00in /  0mm 18.0 W/m2
08:23 43.5 °F /  6.4 °C 35.8 °F /  2.1 °C 30.14in /  1020.5hPa Calm     74% 0.00in /  0mm 19.0 W/m2
08:28 43.9 °F /  6.6 °C 36.5 °F /  2.5 °C 30.14in /  1020.5hPa Calm     75% 0.00in /  0mm 21.0 W/m2
08:33 44.2 °F /  6.8 °C 36.9 °F /  2.7 °C 30.14in /  1020.5hPa Calm     75% 0.00in /  0mm 21.0 W/m2
08:38 44.8 °F /  7.1 °C 37.0 °F /  2.8 °C 30.14in /  1020.5hPa SE 0.9mph /  1.4km/h 3.0mph /  4.8km/h 74% 0.00in /  0mm 23.0 W/m2
08:43 45.5 °F /  7.5 °C 37.4 °F /  3 °C 30.14in /  1020.5hPa Calm     73% 0.00in /  0mm 23.0 W/m2
08:48 46.2 °F /  7.9 °C 37.4 °F /  3 °C 30.15in /  1020.9hPa Calm   1.0mph /  1.6km/h 71% 0.00in /  0mm 25.0 W/m2
08:53 46.9 °F /  8.3 °C 36.9 °F /  2.7 °C 30.15in /  1020.9hPa Calm   1.0mph /  1.6km/h 68% 0.00in /  0mm 25.0 W/m2
08:58 47.8 °F /  8.8 °C 37.0 °F /  2.8 °C 30.15in /  1020.9hPa SE 0.9mph /  1.4km/h 1.0mph /  1.6km/h 66% 0.00in /  0mm 25.0 W/m2
09:03 48.6 °F /  9.2 °C 36.9 °F /  2.7 °C 30.15in /  1020.9hPa Calm   3.0mph /  4.8km/h 64% 0.00in /  0mm 26.0 W/m2
09:09 49.8 °F /  9.9 °C 37.8 °F /  3.2 °C 30.15in /  1020.9hPa Calm   2.0mph /  3.2km/h 63% 0.00in /  0mm 98.0 W/m2
09:14 51.3 °F /  10.7 °C 37.8 °F /  3.2 °C 30.15in /  1020.9hPa Calm   2.0mph /  3.2km/h 60% 0.00in /  0mm 371.0 W/m2
09:19 52.5 °F /  11.4 °C 37.8 °F /  3.2 °C 30.15in /  1020.9hPa Calm   1.0mph /  1.6km/h 57% 0.00in /  0mm 385.0 W/m2
09:24 54.3 °F /  12.4 °C 37.9 °F /  3.3 °C 30.15in /  1020.9hPa SE 0.9mph /  1.4km/h 1.0mph /  1.6km/h 54% 0.00in /  0mm 401.0 W/m2
09:29 56.1 °F /  13.4 °C 38.3 °F /  3.5 °C 30.16in /  1021.2hPa SE 0.9mph /  1.4km/h 1.0mph /  1.6km/h 51% 0.00in /  0mm 420.0 W/m2
09:34 57.9 °F /  14.4 °C 37.8 °F /  3.2 °C 30.16in /  1021.2hPa SE 0.9mph /  1.4km/h 2.0mph /  3.2km/h 47% 0.00in /  0mm 434.0 W/m2
09:39 59.5 °F /  15.3 °C 40.3 °F /  4.6 °C 30.15in /  1020.9hPa East 2.9mph /  4.7km/h 10.0mph /  16.1km/h 49% 0.00in /  0mm 452.0 W/m2
09:44 61.2 °F /  16.2 °C 41.4 °F /  5.2 °C 30.16in /  1021.2hPa NE 0.9mph /  1.4km/h 5.0mph /  8km/h 48% 0.00in /  0mm 466.0 W/m2
09:49 62.6 °F /  17 °C 41.5 °F /  5.3 °C 30.15in /  1020.9hPa Calm   4.0mph /  6.4km/h 46% 0.00in /  0mm 482.0 W/m2
09:54 63.7 °F /  17.6 °C 41.4 °F /  5.2 °C 30.15in /  1020.9hPa NE 2.9mph /  4.7km/h 7.0mph /  11.3km/h 44% 0.00in /  0mm 496.0 W/m2
10:00 64.8 °F /  18.2 °C 41.7 °F /  5.4 °C 30.15in /  1020.9hPa NNE 4.0mph /  6.4km/h 6.0mph /  9.7km/h 43% 0.00in /  0mm 512.0 W/m2
10:05 65.5 °F /  18.6 °C 41.2 °F /  5.1 °C 30.15in /  1020.9hPa NE 2.0mph /  3.2km/h 9.0mph /  14.5km/h 41% 0.00in /  0mm 524.0 W/m2
10:10 65.8 °F /  18.8 °C 42.1 °F /  5.6 °C 30.15in /  1020.9hPa ENE 0.9mph /  1.4km/h 5.0mph /  8km/h 42% 0.00in /  0mm 538.0 W/m2
10:15 66.6 °F /  19.2 °C 40.8 °F /  4.9 °C 30.15in /  1020.9hPa Calm   9.0mph /  14.5km/h 39% 0.00in /  0mm 550.0 W/m2
10:21 66.9 °F /  19.4 °C 41.2 °F /  5.1 °C 30.15in /  1020.9hPa ESE 0.9mph /  1.4km/h 6.0mph /  9.7km/h 39% 0.00in /  0mm 564.0 W/m2
10:26 67.3 °F /  19.6 °C 40.8 °F /  4.9 °C 30.14in /  1020.5hPa SE 4.9mph /  7.9km/h 11.0mph /  17.7km/h 38% 0.00in /  0mm 577.0 W/m2
10:31 67.5 °F /  19.7 °C 41.7 °F /  5.4 °C 30.15in /  1020.9hPa East 8.9mph /  14.3km/h 11.0mph /  17.7km/h 39% 0.00in /  0mm 589.0 W/m2
10:36 67.6 °F /  19.8 °C 41.7 °F /  5.4 °C 30.14in /  1020.5hPa ENE 2.0mph /  3.2km/h 6.0mph /  9.7km/h 39% 0.00in /  0mm 601.0 W/m2
10:42 67.8 °F /  19.9 °C 41.9 °F /  5.5 °C 30.14in /  1020.5hPa SE 2.9mph /  4.7km/h 8.0mph /  12.9km/h 39% 0.00in /  0mm 613.0 W/m2
10:47 68.2 °F /  20.1 °C 42.3 °F /  5.7 °C 30.14in /  1020.5hPa NE 4.9mph /  7.9km/h 7.0mph /  11.3km/h 39% 0.00in /  0mm 624.0 W/m2
10:52 68.5 °F /  20.3 °C 41.9 °F /  5.5 °C 30.14in /  1020.5hPa ENE 6.0mph /  9.7km/h 7.0mph /  11.3km/h 38% 0.00in /  0mm 633.0 W/m2
10:58 68.9 °F /  20.5 °C 43.0 °F /  6.1 °C 30.14in /  1020.5hPa Calm   8.0mph /  12.9km/h 39% 0.00in /  0mm 642.0 W/m2
11:03 69.3 °F /  20.7 °C 43.2 °F /  6.2 °C 30.14in /  1020.5hPa NE 4.9mph /  7.9km/h 7.0mph /  11.3km/h 39% 0.00in /  0mm 652.0 W/m2
11:08 69.6 °F /  20.9 °C 42.3 °F /  5.7 °C 30.14in /  1020.5hPa ENE 2.0mph /  3.2km/h 8.0mph /  12.9km/h 37% 0.00in /  0mm 661.0 W/m2
11:13 70.0 °F /  21.1 °C 42.4 °F /  5.8 °C 30.13in /  1020.2hPa ENE 4.9mph /  7.9km/h 6.0mph /  9.7km/h 37% 0.00in /  0mm 671.0 W/m2
11:18 70.3 °F /  21.3 °C 43.5 °F /  6.4 °C 30.13in /  1020.2hPa East 2.9mph /  4.7km/h 5.0mph /  8km/h 38% 0.00in /  0mm 677.0 W/m2
11:23 70.7 °F /  21.5 °C 42.4 °F /  5.8 °C 30.13in /  1020.2hPa ENE 0.9mph /  1.4km/h 8.0mph /  12.9km/h 36% 0.00in /  0mm 686.0 W/m2
11:28 70.9 °F /  21.6 °C 41.9 °F /  5.5 °C 30.13in /  1020.2hPa ENE 6.9mph /  11.1km/h 7.0mph /  11.3km/h 35% 0.00in /  0mm 693.0 W/m2
11:33 71.2 °F /  21.8 °C 41.4 °F /  5.2 °C 30.13in /  1020.2hPa ENE 2.0mph /  3.2km/h 6.0mph /  9.7km/h 34% 0.00in /  0mm 700.0 W/m2
11:38 71.4 °F /  21.9 °C 39.2 °F /  4 °C 30.13in /  1020.2hPa ENE 2.9mph /  4.7km/h 8.0mph /  12.9km/h 31% 0.00in /  0mm 707.0 W/m2
11:43 71.8 °F /  22.1 °C 40.3 °F /  4.6 °C 30.13in /  1020.2hPa NNE 4.9mph /  7.9km/h 7.0mph /  11.3km/h 32% 0.00in /  0mm 712.0 W/m2
11:49 72.1 °F /  22.3 °C 39.9 °F /  4.4 °C 30.13in /  1020.2hPa NE 4.0mph /  6.4km/h 7.0mph /  11.3km/h 31% 0.00in /  0mm 719.0 W/m2
11:55 72.3 °F /  22.4 °C 39.9 °F /  4.4 °C 30.13in /  1020.2hPa NE 4.0mph /  6.4km/h 5.0mph /  8km/h 31% 0.00in /  0mm 722.0 W/m2
12:00 72.7 °F /  22.6 °C 40.3 °F /  4.6 °C 30.12in /  1019.9hPa NE 4.0mph /  6.4km/h 7.0mph /  11.3km/h 31% 0.00in /  0mm 726.0 W/m2
12:05 72.9 °F /  22.7 °C 39.6 °F /  4.2 °C 30.12in /  1019.9hPa NNE 4.9mph /  7.9km/h 8.0mph /  12.9km/h 30% 0.00in /  0mm 731.0 W/m2
12:10 72.9 °F /  22.7 °C 39.6 °F /  4.2 °C 30.12in /  1019.9hPa NE 8.1mph /  13km/h 8.1mph /  13km/h 30% 0.00in /  0mm 735.0 W/m2
Olympia, Windhoek, Namibia
Compliments of Weather Underground - 2.5 mb